createdAt,value
2023-02-11T00:00:25.137Z,-2.61
2023-02-11T00:02:52.764Z,-2.63
2023-02-11T00:05:20.511Z,-2.64
2023-02-11T00:07:48.061Z,-2.67
2023-02-11T00:10:16.994Z,-2.67
2023-02-11T00:12:44.564Z,-2.71
2023-02-11T00:15:12.212Z,-2.72
2023-02-11T00:17:39.783Z,-2.74
2023-02-11T00:20:08.384Z,-2.74
2023-02-11T00:22:36.008Z,-2.74
2023-02-11T00:25:03.721Z,-2.72
2023-02-11T00:27:32.659Z,-2.71
2023-02-11T00:30:02.283Z,-2.72
2023-02-11T00:32:29.899Z,-2.73
2023-02-11T00:34:57.581Z,-2.76
2023-02-11T00:37:25.173Z,-2.78
2023-02-11T00:39:52.745Z,-2.80
2023-02-11T00:42:20.328Z,-2.82
2023-02-11T00:44:49.229Z,-2.83
2023-02-11T00:47:16.814Z,-2.83
2023-02-11T00:49:44.385Z,-2.86
2023-02-11T00:52:12.019Z,-2.91
2023-02-11T00:54:39.588Z,-2.97
2023-02-11T00:57:07.160Z,-3.01
2023-02-11T00:59:34.743Z,-3.02
2023-02-11T01:02:03.670Z,-3.04
2023-02-11T01:04:31.270Z,-3.07
2023-02-11T01:06:58.890Z,-3.11
2023-02-11T01:09:26.447Z,-3.10
2023-02-11T01:11:54.043Z,-3.09
2023-02-11T01:14:21.643Z,-3.09
2023-02-11T01:16:49.247Z,-3.12
2023-02-11T01:19:18.162Z,-3.17
2023-02-11T01:21:45.727Z,-3.20
2023-02-11T01:24:13.366Z,-3.23
2023-02-11T01:26:40.976Z,-3.22
2023-02-11T01:29:09.355Z,-3.24
2023-02-11T01:31:37.068Z,-3.25
2023-02-11T01:34:04.713Z,-3.25
2023-02-11T01:36:33.642Z,-3.28
2023-02-11T01:39:01.225Z,-3.30
2023-02-11T01:41:28.816Z,-3.29
2023-02-11T01:43:56.406Z,-3.31
2023-02-11T01:46:34.927Z,-3.36
2023-02-11T01:49:05.957Z,-3.40
2023-02-11T01:51:38.792Z,-3.42
2023-02-11T01:54:25.246Z,-3.44
2023-02-11T01:57:12.019Z,-3.45
2023-02-11T01:59:42.783Z,-3.44
2023-02-11T02:02:13.698Z,-3.46
2023-02-11T02:04:46.237Z,-3.51
2023-02-11T02:07:19.075Z,-3.54
2023-02-11T02:09:50.760Z,-3.56
2023-02-11T02:12:18.338Z,-3.58
2023-02-11T02:14:45.934Z,-3.59
2023-02-11T02:17:23.703Z,-3.60
2023-02-11T02:20:16.265Z,-3.60
2023-02-11T02:23:00.129Z,-3.59
2023-02-11T02:25:55.012Z,-3.59
2023-02-11T02:28:49.029Z,-3.60
2023-02-11T02:31:28.462Z,-3.61
2023-02-11T02:34:02.327Z,-3.61
2023-02-11T02:36:35.468Z,-3.59
2023-02-11T02:39:05.514Z,-3.62
2023-02-11T02:41:35.602Z,-3.60
2023-02-11T02:44:03.561Z,-3.63
2023-02-11T02:46:32.903Z,-3.65
2023-02-11T02:49:02.427Z,-3.66
2023-02-11T02:51:44.690Z,-3.67
2023-02-11T02:54:44.378Z,-3.67
2023-02-11T02:57:21.539Z,-3.75
2023-02-11T02:59:58.984Z,-3.75
2023-02-11T03:02:30.666Z,-3.76
2023-02-11T03:05:05.370Z,-3.79
2023-02-11T03:07:38.965Z,-3.78
2023-02-11T03:10:10.518Z,-3.80
2023-02-11T03:12:38.904Z,-3.84
2023-02-11T03:15:08.261Z,-3.85
2023-02-11T03:17:37.176Z,-3.83
2023-02-11T03:20:07.444Z,-3.83
2023-02-11T03:22:39.957Z,-3.81
2023-02-11T03:25:08.037Z,-3.81
2023-02-11T03:27:40.565Z,-3.80
2023-02-11T03:30:13.031Z,-3.80
2023-02-11T03:32:43.406Z,-3.79
2023-02-11T03:35:16.085Z,-3.78
2023-02-11T03:37:46.162Z,-3.79
2023-02-11T03:40:16.922Z,-3.88
2023-02-11T03:42:47.611Z,-4.03
2023-02-11T03:45:17.018Z,-4.05
2023-02-11T03:47:47.219Z,-4.09
2023-02-11T03:50:17.272Z,-4.10
2023-02-11T03:52:45.132Z,-4.05
2023-02-11T03:55:14.934Z,-3.93
2023-02-11T03:57:42.626Z,-3.80
2023-02-11T04:00:11.768Z,-3.67
2023-02-11T04:02:40.197Z,-3.54
2023-02-11T04:05:10.164Z,-3.47
2023-02-11T04:07:39.200Z,-3.41
2023-02-11T04:10:07.969Z,-3.38
2023-02-11T04:12:35.539Z,-3.44
2023-02-11T04:15:03.159Z,-3.46
2023-02-11T04:17:30.799Z,-3.53
2023-02-11T04:19:58.432Z,-3.57
2023-02-11T04:22:26.044Z,-3.60
2023-02-11T04:24:54.991Z,-3.72
2023-02-11T04:27:22.621Z,-3.85
2023-02-11T04:29:50.284Z,-3.86
2023-02-11T04:32:17.918Z,-3.87
2023-02-11T04:34:45.499Z,-3.85
2023-02-11T04:37:13.149Z,-3.82
2023-02-11T04:39:40.789Z,-3.81
2023-02-11T04:42:09.787Z,-3.79
2023-02-11T04:44:37.374Z,-3.79
2023-02-11T04:47:04.973Z,-3.78
2023-02-11T04:49:32.734Z,-3.80
2023-02-11T04:52:00.318Z,-3.80
2023-02-11T04:54:28.066Z,-3.83
2023-02-11T04:56:55.656Z,-3.88
2023-02-11T04:59:25.220Z,-3.92
2023-02-11T05:01:52.816Z,-4.00
2023-02-11T05:04:20.532Z,-3.99
2023-02-11T05:06:48.301Z,-3.95
2023-02-11T05:09:16.694Z,-3.93
2023-02-11T05:11:44.733Z,-3.95
2023-02-11T05:14:12.313Z,-3.98
2023-02-11T05:16:41.312Z,-3.98
2023-02-11T05:19:08.991Z,-3.98
2023-02-11T05:21:36.607Z,-3.95
2023-02-11T05:24:04.410Z,-3.95
2023-02-11T05:26:32.102Z,-3.97
2023-02-11T05:28:59.687Z,-3.94
2023-02-11T05:31:27.292Z,-3.91
2023-02-11T05:33:56.175Z,-3.88
2023-02-11T05:36:23.824Z,-3.87
2023-02-11T05:38:51.610Z,-3.86
2023-02-11T05:41:19.198Z,-3.83
2023-02-11T05:43:49.853Z,-3.79
2023-02-11T05:46:17.979Z,-3.76
2023-02-11T05:48:45.626Z,-3.72
2023-02-11T05:51:14.558Z,-3.66
2023-02-11T05:53:42.244Z,-3.62
2023-02-11T05:56:10.408Z,-3.58
2023-02-11T05:58:38.696Z,-3.55
2023-02-11T06:01:06.321Z,-3.51
2023-02-11T06:03:34.034Z,-3.47
2023-02-11T06:06:01.709Z,-3.45
2023-02-11T06:08:30.668Z,-3.44
2023-02-11T06:10:58.251Z,-3.45
2023-02-11T06:13:25.832Z,-3.45
2023-02-11T06:15:59.883Z,-3.49
2023-02-11T06:18:27.680Z,-3.48
2023-02-11T06:20:55.305Z,-3.42
2023-02-11T06:23:23.261Z,-3.37
2023-02-11T06:25:52.814Z,-3.30
2023-02-11T06:28:20.789Z,-3.24
2023-02-11T06:30:48.634Z,-3.18
2023-02-11T06:33:16.714Z,-3.14
2023-02-11T06:35:44.304Z,-3.13
2023-02-11T06:38:11.867Z,-3.08
2023-02-11T06:40:39.534Z,-3.07
2023-02-11T06:43:08.708Z,-3.06
2023-02-11T06:45:36.355Z,-3.04
2023-02-11T06:48:03.959Z,-2.99
2023-02-11T06:50:31.567Z,-2.91
2023-02-11T06:52:59.996Z,-2.88
2023-02-11T06:55:27.769Z,-2.84
2023-02-11T06:57:55.396Z,-2.81
2023-02-11T07:00:24.340Z,-2.76
2023-02-11T07:02:52.006Z,-2.71
2023-02-11T07:05:19.859Z,-2.66
2023-02-11T07:07:47.627Z,-2.66
2023-02-11T07:10:15.574Z,-2.60
2023-02-11T07:12:43.154Z,-2.56
2023-02-11T07:15:11.054Z,-2.52
2023-02-11T07:17:39.992Z,-2.46
2023-02-11T07:20:08.856Z,-2.40
2023-02-11T07:22:36.461Z,-2.36
2023-02-11T07:25:04.339Z,-2.31
2023-02-11T07:27:31.957Z,-2.27
2023-02-11T07:29:59.540Z,-2.22
2023-02-11T07:32:27.270Z,-2.23
2023-02-11T07:34:56.225Z,-2.23
2023-02-11T07:37:23.885Z,-2.18
2023-02-11T07:39:51.468Z,-2.12
2023-02-11T07:42:19.060Z,-2.11
2023-02-11T07:44:50.271Z,-2.12
2023-02-11T07:47:18.115Z,-2.11
2023-02-11T07:49:46.454Z,-2.22
2023-02-11T07:52:15.380Z,-2.20
2023-02-11T07:54:43.010Z,-2.13
2023-02-11T07:57:11.057Z,-2.06
2023-02-11T07:59:38.891Z,-1.93
2023-02-11T08:02:06.546Z,-1.86
2023-02-11T08:04:34.170Z,-1.77
2023-02-11T08:07:01.759Z,-1.65
2023-02-11T08:09:32.818Z,-1.54
2023-02-11T08:12:02.394Z,-1.43
2023-02-11T08:14:29.976Z,-1.33
2023-02-11T08:16:57.553Z,-1.25
2023-02-11T08:19:25.153Z,-1.17
2023-02-11T08:21:56.432Z,-1.10
2023-02-11T08:24:24.334Z,-1.01
2023-02-11T08:26:53.409Z,-0.92
2023-02-11T08:29:21.145Z,-0.81
2023-02-11T08:31:49.186Z,-0.71
2023-02-11T08:34:18.995Z,-0.62
2023-02-11T08:36:47.919Z,-0.54
2023-02-11T08:39:20.335Z,-0.47
2023-02-11T08:41:49.484Z,-0.43
2023-02-11T08:44:18.663Z,-0.49
2023-02-11T08:46:46.287Z,-0.51
2023-02-11T08:49:13.871Z,-0.50
2023-02-11T08:51:41.490Z,-0.32
2023-02-11T08:54:10.066Z,-0.15
2023-02-11T08:56:38.286Z,0.16
2023-02-11T08:59:06.688Z,0.30
2023-02-11T09:01:35.906Z,0.43
2023-02-11T09:04:03.529Z,0.56
2023-02-11T09:06:31.369Z,0.66
2023-02-11T09:08:59.796Z,0.77
2023-02-11T09:11:29.143Z,0.87
2023-02-11T09:13:56.742Z,0.91
2023-02-11T09:16:26.048Z,0.98
2023-02-11T09:18:56.858Z,0.99
2023-02-11T09:21:24.546Z,1.03
2023-02-11T09:23:52.296Z,1.07
2023-02-11T09:26:21.410Z,1.13
2023-02-11T09:28:49.868Z,1.21
2023-02-11T09:31:20.007Z,1.27
2023-02-11T09:33:49.823Z,1.37
2023-02-11T09:36:21.250Z,1.47
2023-02-11T09:38:49.690Z,1.52
2023-02-11T09:41:43.704Z,1.63
2023-02-11T09:44:19.540Z,1.78
2023-02-11T09:46:49.180Z,1.89
2023-02-11T09:49:20.650Z,2.00
2023-02-11T09:51:52.890Z,2.12
2023-02-11T09:54:22.781Z,2.28
2023-02-11T09:56:50.404Z,2.44
2023-02-11T09:59:18.733Z,2.56
2023-02-11T10:01:49.300Z,2.66
2023-02-11T10:04:23.975Z,2.77
2023-02-11T10:06:54.876Z,2.88
2023-02-11T10:09:38.205Z,2.99
2023-02-11T10:12:18.891Z,3.07
2023-02-11T10:15:08.886Z,3.16
2023-02-11T10:17:40.186Z,3.20
2023-02-11T10:20:26.443Z,3.37
2023-02-11T10:22:56.875Z,3.61
2023-02-11T10:25:26.609Z,3.78
2023-02-11T10:27:56.788Z,3.94
2023-02-11T10:30:29.024Z,4.19
2023-02-11T10:33:00.840Z,4.39
2023-02-11T10:35:28.442Z,4.32
2023-02-11T10:37:57.533Z,4.35
2023-02-11T10:40:28.898Z,4.50
2023-02-11T10:42:59.129Z,4.64
2023-02-11T10:45:31.787Z,4.72
2023-02-11T10:48:02.558Z,4.79
2023-02-11T10:50:33.492Z,4.75
2023-02-11T10:53:17.109Z,4.86
2023-02-11T10:55:51.650Z,4.91
2023-02-11T10:58:27.298Z,5.03
2023-02-11T11:00:56.996Z,5.11
2023-02-11T11:03:26.324Z,5.26
2023-02-11T11:05:58.495Z,5.33
2023-02-11T11:08:39.644Z,5.23
2023-02-11T11:11:09.050Z,5.26
2023-02-11T11:13:37.715Z,5.14
2023-02-11T11:16:17.527Z,5.20
2023-02-11T11:18:46.464Z,5.23
2023-02-11T11:21:16.354Z,5.23
2023-02-11T11:23:51.799Z,5.28
2023-02-11T11:26:19.926Z,5.29
2023-02-11T11:28:57.610Z,5.24
2023-02-11T11:31:27.647Z,5.13
2023-02-11T11:33:57.333Z,5.13
2023-02-11T11:36:31.291Z,5.22
2023-02-11T11:39:02.376Z,5.31
2023-02-11T11:41:31.631Z,5.43
2023-02-11T11:44:04.332Z,5.49
2023-02-11T11:46:35.017Z,5.51
2023-02-11T11:49:14.640Z,5.55
2023-02-11T11:51:43.703Z,5.63
2023-02-11T11:54:14.856Z,5.53
2023-02-11T11:56:48.850Z,5.63
2023-02-11T14:29:52.424Z,9.16
2023-02-11T14:32:34.364Z,9.06
2023-02-11T14:35:07.760Z,8.73
2023-02-11T14:37:50.265Z,8.77
2023-02-11T14:40:28.236Z,8.79
2023-02-11T14:42:56.363Z,8.85
2023-02-11T14:45:27.328Z,8.58
2023-02-11T14:47:59.479Z,8.65
2023-02-11T14:50:27.467Z,8.44
2023-02-11T14:52:56.000Z,8.35
2023-02-11T14:55:30.219Z,8.25
2023-02-11T14:58:09.063Z,8.13
2023-02-11T15:00:38.018Z,8.10
2023-02-11T15:03:05.608Z,8.13
2023-02-11T15:05:33.232Z,8.12
2023-02-11T15:08:02.418Z,8.13
2023-02-11T15:10:32.655Z,7.85
2023-02-11T15:13:01.325Z,7.79
2023-02-11T15:15:29.387Z,7.71
2023-02-11T15:18:00.940Z,7.67
2023-02-11T15:20:31.770Z,7.73
2023-02-11T15:23:01.337Z,7.69
2023-02-11T15:25:30.308Z,7.76
2023-02-11T15:27:59.676Z,7.73
2023-02-11T15:30:33.955Z,7.68
2023-02-11T15:33:06.075Z,7.54
2023-02-11T15:35:36.489Z,7.49
2023-02-11T15:38:04.905Z,7.50
2023-02-11T15:40:33.898Z,7.46
2023-02-11T15:43:03.688Z,7.47
2023-02-11T15:45:32.904Z,7.57
2023-02-11T15:48:09.144Z,7.66
2023-02-11T15:50:37.742Z,7.73
2023-02-11T15:53:16.986Z,7.73
2023-02-11T15:55:45.115Z,7.58
2023-02-11T15:58:13.758Z,7.56
2023-02-11T16:00:47.623Z,7.48
2023-02-11T16:03:23.737Z,7.34
2023-02-11T16:05:51.740Z,7.22
2023-02-11T16:08:24.338Z,7.24
2023-02-11T16:10:58.601Z,7.15
2023-02-11T16:13:28.190Z,7.12
2023-02-11T16:15:57.917Z,7.09
2023-02-11T16:18:39.852Z,7.09
2023-02-11T16:21:08.235Z,7.09
2023-02-11T16:23:37.192Z,7.05
2023-02-11T16:26:08.791Z,7.02
2023-02-11T16:28:37.522Z,7.04
2023-02-11T16:31:05.895Z,6.95
2023-02-11T16:33:34.853Z,6.83
2023-02-11T16:36:03.416Z,6.77
2023-02-11T16:38:31.427Z,6.75
2023-02-11T16:40:58.995Z,6.64
2023-02-11T16:43:26.600Z,6.47
2023-02-11T16:45:54.460Z,6.33
2023-02-11T16:48:22.033Z,6.17
2023-02-11T16:50:53.404Z,6.10
2023-02-11T16:53:24.013Z,6.08
2023-02-11T16:55:52.277Z,6.07
2023-02-11T16:58:20.119Z,6.02
2023-02-11T17:00:48.720Z,6.01
2023-02-11T17:03:19.386Z,6.02
2023-02-11T17:05:55.462Z,5.96
2023-02-11T17:08:24.938Z,5.84
2023-02-11T17:10:52.943Z,5.80
2023-02-11T17:13:20.808Z,5.82
2023-02-11T17:15:48.410Z,5.81
2023-02-11T17:18:16.013Z,5.80
2023-02-11T17:20:43.668Z,5.68
2023-02-11T17:23:11.323Z,5.55
2023-02-11T17:25:40.701Z,5.58
2023-02-11T17:28:09.613Z,5.61
2023-02-11T17:30:37.303Z,5.56
2023-02-11T17:33:05.048Z,5.48
2023-02-11T17:35:32.669Z,5.47
2023-02-11T17:38:01.400Z,5.46
2023-02-11T17:40:29.023Z,5.47
2023-02-11T17:42:58.026Z,5.46
2023-02-11T17:45:25.713Z,5.43
2023-02-11T17:47:53.322Z,5.34
2023-02-11T17:50:21.151Z,5.27
2023-02-11T17:52:48.726Z,5.17
2023-02-11T17:55:16.570Z,5.16
2023-02-11T17:57:44.142Z,5.16
2023-02-11T18:00:14.406Z,5.17
2023-02-11T18:02:42.029Z,5.20
2023-02-11T18:05:10.085Z,5.18
2023-02-11T18:07:37.719Z,5.16
2023-02-11T18:10:07.101Z,5.16
2023-02-11T18:12:34.740Z,5.13
2023-02-11T18:15:02.331Z,5.13
2023-02-11T18:17:31.285Z,5.12
2023-02-11T18:19:58.966Z,5.14
2023-02-11T18:22:26.817Z,5.12
2023-02-11T18:24:54.939Z,5.08
2023-02-11T18:27:22.965Z,5.03
2023-02-11T18:29:50.583Z,5.06
2023-02-11T18:32:18.150Z,5.03
2023-02-11T18:34:47.098Z,5.04
2023-02-11T18:37:16.246Z,5.01
2023-02-11T18:39:44.011Z,4.94
2023-02-11T18:42:11.600Z,4.91
2023-02-11T18:44:39.207Z,4.85
2023-02-11T18:47:06.879Z,4.82
2023-02-11T18:49:36.139Z,4.76
2023-02-11T18:52:05.452Z,4.74
2023-02-11T18:54:33.067Z,4.71
2023-02-11T18:57:00.659Z,4.66
2023-02-11T18:59:28.290Z,4.58
2023-02-11T19:01:55.863Z,4.54
2023-02-11T19:04:23.486Z,4.50
2023-02-11T19:06:51.134Z,4.40
2023-02-11T19:09:21.147Z,4.36
2023-02-11T19:11:49.739Z,4.24
2023-02-11T19:14:22.346Z,4.15
2023-02-11T19:16:51.320Z,4.12
2023-02-11T19:19:19.610Z,4.11
2023-02-11T19:21:48.841Z,4.04
2023-02-11T19:24:18.909Z,3.88
2023-02-11T19:26:48.385Z,3.87
2023-02-11T19:29:16.212Z,3.78
2023-02-11T19:31:44.487Z,3.71
2023-02-11T19:34:13.410Z,3.69
2023-02-11T19:36:41.439Z,3.67
2023-02-11T19:39:09.307Z,3.59
2023-02-11T19:41:37.706Z,3.53
2023-02-11T19:44:07.874Z,3.49
2023-02-11T19:46:37.669Z,3.34
2023-02-11T19:49:05.883Z,3.08
2023-02-11T19:51:33.777Z,2.99
2023-02-11T19:54:01.690Z,3.00
2023-02-11T19:56:29.576Z,2.95
2023-02-11T19:58:57.429Z,3.00
2023-02-11T20:01:26.932Z,3.00
2023-02-11T20:03:56.529Z,2.99
2023-02-11T20:06:25.624Z,2.96
2023-02-11T20:08:58.211Z,2.97
2023-02-11T20:11:26.904Z,2.93
2023-02-11T20:13:54.802Z,2.92
2023-02-11T20:16:27.015Z,2.84
2023-02-11T20:19:02.939Z,2.75
2023-02-11T20:21:32.415Z,2.74
2023-02-11T20:24:01.012Z,2.68
2023-02-11T20:26:30.501Z,2.63
2023-02-11T20:28:59.141Z,2.57
2023-02-11T20:31:26.841Z,2.55
2023-02-11T20:33:56.404Z,2.44
2023-02-11T20:36:26.789Z,2.42
2023-02-11T20:38:55.183Z,2.44
2023-02-11T20:41:24.651Z,2.47
2023-02-11T20:43:54.154Z,2.47
2023-02-11T20:46:24.931Z,2.47
2023-02-11T20:48:53.080Z,2.44
2023-02-11T20:51:25.254Z,2.37
2023-02-11T20:53:52.998Z,2.33
2023-02-11T20:56:23.612Z,2.33
2023-02-11T20:58:51.564Z,2.36
2023-02-11T21:01:21.264Z,2.37
2023-02-11T21:03:51.738Z,2.35
2023-02-11T21:06:19.453Z,2.38
2023-02-11T21:08:48.432Z,2.37
2023-02-11T21:11:16.496Z,2.35
2023-02-11T21:13:44.736Z,2.30
2023-02-11T21:16:15.341Z,2.26
2023-02-11T21:18:43.013Z,2.20
2023-02-11T21:21:10.702Z,2.13
2023-02-11T21:23:39.551Z,2.08
2023-02-11T21:26:09.048Z,2.11
2023-02-11T21:28:39.826Z,2.15
2023-02-11T21:31:08.728Z,2.21
2023-02-11T21:33:36.527Z,2.26
2023-02-11T21:36:07.697Z,2.28
2023-02-11T21:38:35.791Z,2.20
2023-02-11T21:41:04.687Z,2.02
2023-02-11T21:43:33.884Z,1.86
2023-02-11T21:46:01.697Z,1.81
2023-02-11T21:48:29.273Z,1.89
2023-02-11T21:50:56.902Z,1.92
2023-02-11T21:53:24.481Z,1.86
2023-02-11T21:55:52.053Z,1.90
2023-02-11T21:58:19.654Z,1.99
2023-02-11T22:00:48.643Z,2.04
2023-02-11T22:03:16.322Z,2.04
2023-02-11T22:05:43.903Z,2.11
2023-02-11T22:08:11.458Z,2.13
2023-02-11T22:10:39.069Z,2.16
2023-02-11T22:13:06.609Z,2.19
2023-02-11T22:15:34.176Z,2.21
2023-02-11T22:18:03.066Z,2.20
2023-02-11T22:20:30.673Z,2.22
2023-02-11T22:22:59.400Z,2.26
2023-02-11T22:25:27.004Z,2.30
2023-02-11T22:27:54.599Z,2.31
2023-02-11T22:30:22.486Z,2.27
2023-02-11T22:32:50.052Z,2.28
2023-02-11T22:35:18.998Z,2.28
2023-02-11T22:37:46.603Z,2.29
2023-02-11T22:40:14.695Z,2.28
2023-02-11T22:42:42.302Z,2.29
2023-02-11T22:45:10.541Z,2.19
2023-02-11T22:47:38.862Z,2.14
2023-02-11T22:50:07.887Z,2.12
2023-02-11T22:52:37.309Z,2.12
2023-02-11T22:55:05.432Z,2.12
2023-02-11T22:57:33.059Z,2.14
2023-02-11T23:00:00.654Z,2.15
2023-02-11T23:02:28.300Z,2.13
2023-02-11T23:04:56.065Z,2.09
2023-02-11T23:07:23.649Z,2.06
2023-02-11T23:09:52.590Z,2.04
2023-02-11T23:12:20.205Z,1.98
2023-02-11T23:14:47.963Z,1.88
2023-02-11T23:17:15.560Z,1.81
2023-02-11T23:19:43.191Z,1.77
2023-02-11T23:22:10.795Z,1.76
2023-02-11T23:24:38.393Z,1.75
2023-02-11T23:27:07.433Z,1.73
2023-02-11T23:29:35.050Z,1.77
2023-02-11T23:32:02.725Z,1.78
2023-02-11T23:34:30.320Z,1.78
2023-02-11T23:36:59.210Z,1.81
2023-02-11T23:39:27.138Z,1.82
2023-02-11T23:41:58.861Z,1.83
2023-02-11T23:44:28.355Z,1.82
2023-02-11T23:46:55.942Z,1.77
2023-02-11T23:49:23.615Z,1.77
2023-02-11T23:51:51.218Z,1.81
2023-02-11T23:54:18.816Z,1.83
2023-02-11T23:56:46.452Z,1.81
2023-02-11T23:59:14.339Z,1.82
